sensor_id;sensor_type;location;lat;lon;timestamp;temperature;humidity
23748;DHT22;12054;53.662;10.126;2023-02-15T00:01:23;5.70;99.90
23748;DHT22;12054;53.662;10.126;2023-02-15T00:03:49;5.60;99.90
23748;DHT22;12054;53.662;10.126;2023-02-15T00:06:15;5.60;99.90
23748;DHT22;12054;53.662;10.126;2023-02-15T00:08:40;5.60;99.90
23748;DHT22;12054;53.662;10.126;2023-02-15T00:11:11;5.60;99.90
23748;DHT22;12054;53.662;10.126;2023-02-15T00:13:37;5.60;99.90
23748;DHT22;12054;53.662;10.126;2023-02-15T00:16:06;5.60;99.90
23748;DHT22;12054;53.662;10.126;2023-02-15T00:18:32;5.60;99.90
23748;DHT22;12054;53.662;10.126;2023-02-15T00:21:02;5.60;99.90
23748;DHT22;12054;53.662;10.126;2023-02-15T00:23:28;5.60;99.90
23748;DHT22;12054;53.662;10.126;2023-02-15T00:26:06;5.60;99.90
23748;DHT22;12054;53.662;10.126;2023-02-15T00:28:32;5.50;99.90
23748;DHT22;12054;53.662;10.126;2023-02-15T00:31:09;5.60;99.90
23748;DHT22;12054;53.662;10.126;2023-02-15T00:33:36;5.60;99.90
23748;DHT22;12054;53.662;10.126;2023-02-15T00:36:03;5.50;99.90
23748;DHT22;12054;53.662;10.126;2023-02-15T00:38:29;5.50;99.90
23748;DHT22;12054;53.662;10.126;2023-02-15T00:40:59;5.50;99.90
23748;DHT22;12054;53.662;10.126;2023-02-15T00:43:26;5.50;99.90
23748;DHT22;12054;53.662;10.126;2023-02-15T00:45:52;5.50;99.90
23748;DHT22;12054;53.662;10.126;2023-02-15T00:48:19;5.50;99.90
23748;DHT22;12054;53.662;10.126;2023-02-15T00:50:46;5.50;99.90
23748;DHT22;12054;53.662;10.126;2023-02-15T00:53:12;5.50;99.90
23748;DHT22;12054;53.662;10.126;2023-02-15T00:55:37;5.50;99.90
23748;DHT22;12054;53.662;10.126;2023-02-15T00:58:05;5.40;99.90
23748;DHT22;12054;53.662;10.126;2023-02-15T01:00:30;5.40;99.90
23748;DHT22;12054;53.662;10.126;2023-02-15T01:02:56;5.40;99.90
23748;DHT22;12054;53.662;10.126;2023-02-15T01:05:21;5.40;99.90
23748;DHT22;12054;53.662;10.126;2023-02-15T01:07:47;5.40;99.90
23748;DHT22;12054;53.662;10.126;2023-02-15T01:10:12;5.40;99.90
23748;DHT22;12054;53.662;10.126;2023-02-15T01:12:38;5.40;99.90
23748;DHT22;12054;53.662;10.126;2023-02-15T01:15:04;5.40;99.90
23748;DHT22;12054;53.662;10.126;2023-02-15T01:17:31;5.40;99.90
23748;DHT22;12054;53.662;10.126;2023-02-15T01:19:56;5.40;99.90
23748;DHT22;12054;53.662;10.126;2023-02-15T01:22:22;5.40;99.90
23748;DHT22;12054;53.662;10.126;2023-02-15T01:24:49;5.40;99.90
23748;DHT22;12054;53.662;10.126;2023-02-15T01:27:17;5.40;99.90
23748;DHT22;12054;53.662;10.126;2023-02-15T01:29:43;5.40;99.90
23748;DHT22;12054;53.662;10.126;2023-02-15T01:32:09;5.40;99.90
23748;DHT22;12054;53.662;10.126;2023-02-15T01:34:34;5.40;99.90
23748;DHT22;12054;53.662;10.126;2023-02-15T01:37:00;5.40;99.90
23748;DHT22;12054;53.662;10.126;2023-02-15T01:39:25;5.40;99.90
23748;DHT22;12054;53.662;10.126;2023-02-15T01:41:51;5.40;99.90
23748;DHT22;12054;53.662;10.126;2023-02-15T01:47:23;5.40;99.90
23748;DHT22;12054;53.662;10.126;2023-02-15T01:49:58;5.40;99.90
23748;DHT22;12054;53.662;10.126;2023-02-15T01:52:25;5.40;99.90
23748;DHT22;12054;53.662;10.126;2023-02-15T01:54:51;5.40;99.90
23748;DHT22;12054;53.662;10.126;2023-02-15T01:57:19;5.40;99.90
23748;DHT22;12054;53.662;10.126;2023-02-15T01:59:52;5.40;99.90
23748;DHT22;12054;53.662;10.126;2023-02-15T02:02:19;5.40;99.90
23748;DHT22;12054;53.662;10.126;2023-02-15T02:04:51;5.40;99.90
23748;DHT22;12054;53.662;10.126;2023-02-15T02:07:21;5.40;99.90
23748;DHT22;12054;53.662;10.126;2023-02-15T02:09:48;5.40;99.90
23748;DHT22;12054;53.662;10.126;2023-02-15T02:12:15;5.40;99.90
23748;DHT22;12054;53.662;10.126;2023-02-15T02:14:42;5.40;99.90
23748;DHT22;12054;53.662;10.126;2023-02-15T02:25:29;5.40;99.90
23748;DHT22;12054;53.662;10.126;2023-02-15T02:28:22;5.40;99.90
23748;DHT22;12054;53.662;10.126;2023-02-15T02:33:38;5.40;99.90
23748;DHT22;12054;53.662;10.126;2023-02-15T02:36:08;5.40;99.90
23748;DHT22;12054;53.662;10.126;2023-02-15T02:43:56;5.40;99.90
23748;DHT22;12054;53.662;10.126;2023-02-15T02:49:11;5.40;99.90
23748;DHT22;12054;53.662;10.126;2023-02-15T02:51:37;5.40;99.90
23748;DHT22;12054;53.662;10.126;2023-02-15T02:54:05;5.40;99.90
23748;DHT22;12054;53.662;10.126;2023-02-15T02:56:36;5.40;99.90
23748;DHT22;12054;53.662;10.126;2023-02-15T02:59:12;5.30;99.90
23748;DHT22;12054;53.662;10.126;2023-02-15T03:01:45;5.30;99.90
23748;DHT22;12054;53.662;10.126;2023-02-15T03:04:19;5.30;99.90
23748;DHT22;12054;53.662;10.126;2023-02-15T03:09:23;5.30;99.90
23748;DHT22;12054;53.662;10.126;2023-02-15T03:11:50;5.30;99.90
23748;DHT22;12054;53.662;10.126;2023-02-15T03:14:17;5.30;99.90
23748;DHT22;12054;53.662;10.126;2023-02-15T03:16:47;5.30;99.90
23748;DHT22;12054;53.662;10.126;2023-02-15T03:19:28;5.30;99.90
23748;DHT22;12054;53.662;10.126;2023-02-15T03:22:00;5.30;99.90
23748;DHT22;12054;53.662;10.126;2023-02-15T03:24:37;5.30;99.90
23748;DHT22;12054;53.662;10.126;2023-02-15T03:27:09;5.30;99.90
23748;DHT22;12054;53.662;10.126;2023-02-15T03:29:36;5.30;99.90
23748;DHT22;12054;53.662;10.126;2023-02-15T03:32:05;5.30;99.90
23748;DHT22;12054;53.662;10.126;2023-02-15T03:34:32;5.20;99.90
23748;DHT22;12054;53.662;10.126;2023-02-15T03:37:29;5.20;99.90
23748;DHT22;12054;53.662;10.126;2023-02-15T03:40:13;5.20;99.90
23748;DHT22;12054;53.662;10.126;2023-02-15T03:43:12;5.20;99.90
23748;DHT22;12054;53.662;10.126;2023-02-15T03:45:40;5.20;99.90
23748;DHT22;12054;53.662;10.126;2023-02-15T03:48:28;5.20;99.90
23748;DHT22;12054;53.662;10.126;2023-02-15T03:50:59;5.20;99.90
23748;DHT22;12054;53.662;10.126;2023-02-15T03:53:46;5.20;99.90
23748;DHT22;12054;53.662;10.126;2023-02-15T03:56:12;5.20;99.90
23748;DHT22;12054;53.662;10.126;2023-02-15T03:58:37;5.20;99.90
23748;DHT22;12054;53.662;10.126;2023-02-15T04:01:38;5.20;99.90
23748;DHT22;12054;53.662;10.126;2023-02-15T04:04:34;5.20;99.90
23748;DHT22;12054;53.662;10.126;2023-02-15T04:07:01;5.20;99.90
23748;DHT22;12054;53.662;10.126;2023-02-15T04:09:27;5.20;99.90
23748;DHT22;12054;53.662;10.126;2023-02-15T04:12:11;5.20;99.90
23748;DHT22;12054;53.662;10.126;2023-02-15T04:14:37;5.20;99.90
23748;DHT22;12054;53.662;10.126;2023-02-15T04:17:21;5.20;99.90
23748;DHT22;12054;53.662;10.126;2023-02-15T04:19:46;5.10;99.90
23748;DHT22;12054;53.662;10.126;2023-02-15T04:22:30;5.10;99.90
23748;DHT22;12054;53.662;10.126;2023-02-15T04:25:14;5.10;99.90
23748;DHT22;12054;53.662;10.126;2023-02-15T04:27:43;5.10;99.90
23748;DHT22;12054;53.662;10.126;2023-02-15T04:30:10;5.10;99.90
23748;DHT22;12054;53.662;10.126;2023-02-15T04:32:36;5.10;99.90
23748;DHT22;12054;53.662;10.126;2023-02-15T04:35:02;5.10;99.90
23748;DHT22;12054;53.662;10.126;2023-02-15T04:37:28;5.10;99.90
23748;DHT22;12054;53.662;10.126;2023-02-15T04:39:54;5.10;99.90
23748;DHT22;12054;53.662;10.126;2023-02-15T04:42:19;5.10;99.90
23748;DHT22;12054;53.662;10.126;2023-02-15T04:44:45;5.10;99.90
23748;DHT22;12054;53.662;10.126;2023-02-15T04:47:10;5.10;99.90
23748;DHT22;12054;53.662;10.126;2023-02-15T04:49:36;5.00;99.90
23748;DHT22;12054;53.662;10.126;2023-02-15T04:52:01;5.00;99.90
23748;DHT22;12054;53.662;10.126;2023-02-15T04:54:27;5.00;99.90
23748;DHT22;12054;53.662;10.126;2023-02-15T04:56:52;5.00;99.90
23748;DHT22;12054;53.662;10.126;2023-02-15T04:59:18;5.00;99.90
23748;DHT22;12054;53.662;10.126;2023-02-15T05:01:44;5.00;99.90
23748;DHT22;12054;53.662;10.126;2023-02-15T05:04:09;5.00;99.90
23748;DHT22;12054;53.662;10.126;2023-02-15T05:06:35;5.00;99.90
23748;DHT22;12054;53.662;10.126;2023-02-15T05:09:00;5.00;99.90
23748;DHT22;12054;53.662;10.126;2023-02-15T05:11:26;5.00;99.90
23748;DHT22;12054;53.662;10.126;2023-02-15T05:13:52;5.00;99.90
23748;DHT22;12054;53.662;10.126;2023-02-15T05:16:18;5.00;99.90
23748;DHT22;12054;53.662;10.126;2023-02-15T05:18:43;5.00;99.90
23748;DHT22;12054;53.662;10.126;2023-02-15T05:21:09;5.00;99.90
23748;DHT22;12054;53.662;10.126;2023-02-15T05:23:35;5.00;99.90
23748;DHT22;12054;53.662;10.126;2023-02-15T05:26:01;4.90;99.90
23748;DHT22;12054;53.662;10.126;2023-02-15T05:28:45;4.90;99.90
23748;DHT22;12054;53.662;10.126;2023-02-15T05:31:18;4.90;99.90
23748;DHT22;12054;53.662;10.126;2023-02-15T05:33:44;4.90;99.90
23748;DHT22;12054;53.662;10.126;2023-02-15T05:36:10;4.90;99.90
23748;DHT22;12054;53.662;10.126;2023-02-15T05:38:37;4.90;99.90
23748;DHT22;12054;53.662;10.126;2023-02-15T05:41:06;4.90;99.90
23748;DHT22;12054;53.662;10.126;2023-02-15T05:43:33;4.90;99.90
23748;DHT22;12054;53.662;10.126;2023-02-15T05:45:59;4.90;99.90
23748;DHT22;12054;53.662;10.126;2023-02-15T05:48:26;4.90;99.90
23748;DHT22;12054;53.662;10.126;2023-02-15T05:51:06;4.90;99.90
23748;DHT22;12054;53.662;10.126;2023-02-15T05:53:34;4.90;99.90
23748;DHT22;12054;53.662;10.126;2023-02-15T05:56:00;4.90;99.90
23748;DHT22;12054;53.662;10.126;2023-02-15T05:58:26;4.90;99.90
23748;DHT22;12054;53.662;10.126;2023-02-15T06:00:52;4.90;99.90
23748;DHT22;12054;53.662;10.126;2023-02-15T06:03:18;4.90;99.90
23748;DHT22;12054;53.662;10.126;2023-02-15T06:05:43;4.80;99.90
23748;DHT22;12054;53.662;10.126;2023-02-15T06:08:09;4.80;99.90
23748;DHT22;12054;53.662;10.126;2023-02-15T06:10:35;4.80;99.90
23748;DHT22;12054;53.662;10.126;2023-02-15T06:13:00;4.80;99.90
23748;DHT22;12054;53.662;10.126;2023-02-15T06:15:26;4.80;99.90
23748;DHT22;12054;53.662;10.126;2023-02-15T06:17:51;4.80;99.90
23748;DHT22;12054;53.662;10.126;2023-02-15T06:20:17;4.80;99.90
23748;DHT22;12054;53.662;10.126;2023-02-15T06:22:43;4.80;99.90
23748;DHT22;12054;53.662;10.126;2023-02-15T06:25:08;4.80;99.90
23748;DHT22;12054;53.662;10.126;2023-02-15T06:27:35;4.80;99.90
23748;DHT22;12054;53.662;10.126;2023-02-15T06:30:01;4.80;99.90
23748;DHT22;12054;53.662;10.126;2023-02-15T06:32:26;4.80;99.90
23748;DHT22;12054;53.662;10.126;2023-02-15T06:34:52;4.80;99.90
23748;DHT22;12054;53.662;10.126;2023-02-15T06:37:17;4.80;99.90
23748;DHT22;12054;53.662;10.126;2023-02-15T06:39:44;4.70;99.90
23748;DHT22;12054;53.662;10.126;2023-02-15T06:42:09;4.70;99.90
23748;DHT22;12054;53.662;10.126;2023-02-15T06:44:35;4.70;99.90
23748;DHT22;12054;53.662;10.126;2023-02-15T06:47:00;4.70;99.90
23748;DHT22;12054;53.662;10.126;2023-02-15T06:49:26;4.70;99.90
23748;DHT22;12054;53.662;10.126;2023-02-15T06:51:52;4.70;99.90
23748;DHT22;12054;53.662;10.126;2023-02-15T06:54:17;4.70;99.90
23748;DHT22;12054;53.662;10.126;2023-02-15T06:56:43;4.70;99.90
23748;DHT22;12054;53.662;10.126;2023-02-15T06:59:09;4.70;99.90
23748;DHT22;12054;53.662;10.126;2023-02-15T07:01:34;4.70;99.90
23748;DHT22;12054;53.662;10.126;2023-02-15T07:04:02;4.70;99.90
23748;DHT22;12054;53.662;10.126;2023-02-15T07:06:31;4.60;99.90
23748;DHT22;12054;53.662;10.126;2023-02-15T07:08:57;4.60;99.90
23748;DHT22;12054;53.662;10.126;2023-02-15T07:11:22;4.70;99.90
23748;DHT22;12054;53.662;10.126;2023-02-15T07:14:06;4.60;99.90
23748;DHT22;12054;53.662;10.126;2023-02-15T07:16:32;4.60;99.90
23748;DHT22;12054;53.662;10.126;2023-02-15T07:18:57;4.60;99.90
23748;DHT22;12054;53.662;10.126;2023-02-15T07:21:23;4.60;99.90
23748;DHT22;12054;53.662;10.126;2023-02-15T07:23:50;4.60;99.90
23748;DHT22;12054;53.662;10.126;2023-02-15T07:26:15;4.60;99.90
23748;DHT22;12054;53.662;10.126;2023-02-15T07:28:41;4.60;99.90
23748;DHT22;12054;53.662;10.126;2023-02-15T07:31:06;4.50;99.90
23748;DHT22;12054;53.662;10.126;2023-02-15T07:33:32;4.50;99.90
23748;DHT22;12054;53.662;10.126;2023-02-15T07:36:00;4.50;99.90
23748;DHT22;12054;53.662;10.126;2023-02-15T07:38:34;4.50;99.90
23748;DHT22;12054;53.662;10.126;2023-02-15T07:41:02;4.50;99.90
23748;DHT22;12054;53.662;10.126;2023-02-15T07:43:29;4.50;99.90
23748;DHT22;12054;53.662;10.126;2023-02-15T07:46:02;4.50;99.90
23748;DHT22;12054;53.662;10.126;2023-02-15T07:48:28;4.50;99.90
23748;DHT22;12054;53.662;10.126;2023-02-15T07:50:54;4.50;99.90
23748;DHT22;12054;53.662;10.126;2023-02-15T07:53:19;4.50;99.90
23748;DHT22;12054;53.662;10.126;2023-02-15T07:55:45;4.50;99.90
23748;DHT22;12054;53.662;10.126;2023-02-15T07:58:10;4.40;99.90
23748;DHT22;12054;53.662;10.126;2023-02-15T08:00:36;4.40;99.90
23748;DHT22;12054;53.662;10.126;2023-02-15T08:03:25;4.40;99.90
23748;DHT22;12054;53.662;10.126;2023-02-15T08:05:56;4.40;99.90
23748;DHT22;12054;53.662;10.126;2023-02-15T08:08:21;4.40;99.90
23748;DHT22;12054;53.662;10.126;2023-02-15T08:11:01;4.40;99.90
23748;DHT22;12054;53.662;10.126;2023-02-15T08:13:50;4.40;99.90
23748;DHT22;12054;53.662;10.126;2023-02-15T08:18:55;4.40;99.90
23748;DHT22;12054;53.662;10.126;2023-02-15T08:21:21;4.40;99.90
23748;DHT22;12054;53.662;10.126;2023-02-15T08:23:47;4.30;99.90
23748;DHT22;12054;53.662;10.126;2023-02-15T08:26:13;4.30;99.90
23748;DHT22;12054;53.662;10.126;2023-02-15T08:28:40;4.30;99.90
23748;DHT22;12054;53.662;10.126;2023-02-15T08:31:11;4.30;99.90
23748;DHT22;12054;53.662;10.126;2023-02-15T08:33:38;4.30;99.90
23748;DHT22;12054;53.662;10.126;2023-02-15T08:36:05;4.30;99.90
23748;DHT22;12054;53.662;10.126;2023-02-15T08:38:31;4.30;99.90
23748;DHT22;12054;53.662;10.126;2023-02-15T08:40:58;4.20;99.90
23748;DHT22;12054;53.662;10.126;2023-02-15T08:43:33;4.30;99.90
23748;DHT22;12054;53.662;10.126;2023-02-15T08:45:58;4.20;99.90
23748;DHT22;12054;53.662;10.126;2023-02-15T08:48:24;4.20;99.90
23748;DHT22;12054;53.662;10.126;2023-02-15T08:50:49;4.20;99.90
23748;DHT22;12054;53.662;10.126;2023-02-15T08:53:15;4.30;99.90
23748;DHT22;12054;53.662;10.126;2023-02-15T08:55:40;4.30;99.90
23748;DHT22;12054;53.662;10.126;2023-02-15T08:58:06;4.20;99.90
23748;DHT22;12054;53.662;10.126;2023-02-15T09:00:32;4.20;99.90
23748;DHT22;12054;53.662;10.126;2023-02-15T09:02:57;4.20;99.90
23748;DHT22;12054;53.662;10.126;2023-02-15T09:05:23;4.20;99.90
23748;DHT22;12054;53.662;10.126;2023-02-15T09:07:49;4.20;99.90
23748;DHT22;12054;53.662;10.126;2023-02-15T09:10:15;4.20;99.90
23748;DHT22;12054;53.662;10.126;2023-02-15T09:12:40;4.20;99.90
23748;DHT22;12054;53.662;10.126;2023-02-15T09:15:06;4.20;99.90
23748;DHT22;12054;53.662;10.126;2023-02-15T09:17:32;4.20;99.90
23748;DHT22;12054;53.662;10.126;2023-02-15T09:19:57;4.20;99.90
23748;DHT22;12054;53.662;10.126;2023-02-15T09:22:23;4.20;99.90
23748;DHT22;12054;53.662;10.126;2023-02-15T09:24:49;4.20;99.90
23748;DHT22;12054;53.662;10.126;2023-02-15T09:27:14;4.20;99.90
23748;DHT22;12054;53.662;10.126;2023-02-15T09:29:40;4.20;99.90
23748;DHT22;12054;53.662;10.126;2023-02-15T09:32:05;4.20;99.90
23748;DHT22;12054;53.662;10.126;2023-02-15T09:34:31;4.20;99.90
23748;DHT22;12054;53.662;10.126;2023-02-15T09:36:56;4.20;99.90
23748;DHT22;12054;53.662;10.126;2023-02-15T09:39:23;4.20;99.90
23748;DHT22;12054;53.662;10.126;2023-02-15T09:41:58;4.20;99.90
23748;DHT22;12054;53.662;10.126;2023-02-15T09:50:07;4.30;99.90
23748;DHT22;12054;53.662;10.126;2023-02-15T09:55:43;4.30;99.90
23748;DHT22;12054;53.662;10.126;2023-02-15T10:00:57;4.30;99.90
23748;DHT22;12054;53.662;10.126;2023-02-15T10:14:49;4.40;99.90
23748;DHT22;12054;53.662;10.126;2023-02-15T10:20:31;4.40;99.90
23748;DHT22;12054;53.662;10.126;2023-02-15T10:26:37;4.40;99.90
23748;DHT22;12054;53.662;10.126;2023-02-15T10:29:36;4.40;99.90
23748;DHT22;12054;53.662;10.126;2023-02-15T10:37:25;4.40;99.90
23748;DHT22;12054;53.662;10.126;2023-02-15T10:42:56;4.40;99.90
23748;DHT22;12054;53.662;10.126;2023-02-15T10:45:33;4.40;99.90
23748;DHT22;12054;53.662;10.126;2023-02-15T10:48:21;4.40;99.90
23748;DHT22;12054;53.662;10.126;2023-02-15T10:50:51;4.40;99.90
23748;DHT22;12054;53.662;10.126;2023-02-15T11:04:45;4.50;99.90
23748;DHT22;12054;53.662;10.126;2023-02-15T11:09:49;4.50;99.90
23748;DHT22;12054;53.662;10.126;2023-02-15T11:12:19;4.50;99.90
23748;DHT22;12054;53.662;10.126;2023-02-15T11:15:02;4.50;99.90
23748;DHT22;12054;53.662;10.126;2023-02-15T11:17:36;4.50;99.90
23748;DHT22;12054;53.662;10.126;2023-02-15T11:20:35;4.50;99.90
23748;DHT22;12054;53.662;10.126;2023-02-15T11:23:12;4.50;99.90
23748;DHT22;12054;53.662;10.126;2023-02-15T11:25:40;4.50;99.90
23748;DHT22;12054;53.662;10.126;2023-02-15T11:28:16;4.50;99.90
23748;DHT22;12054;53.662;10.126;2023-02-15T11:30:46;4.60;99.90
23748;DHT22;12054;53.662;10.126;2023-02-15T11:33:29;4.60;99.90
23748;DHT22;12054;53.662;10.126;2023-02-15T11:36:09;4.60;99.90
23748;DHT22;12054;53.662;10.126;2023-02-15T11:38:37;4.60;99.90
23748;DHT22;12054;53.662;10.126;2023-02-15T11:41:14;4.60;99.90
23748;DHT22;12054;53.662;10.126;2023-02-15T11:43:58;4.70;99.90
23748;DHT22;12054;53.662;10.126;2023-02-15T11:46:26;4.70;99.90
23748;DHT22;12054;53.662;10.126;2023-02-15T11:48:51;4.70;99.90
23748;DHT22;12054;53.662;10.126;2023-02-15T11:51:19;4.70;99.90
23748;DHT22;12054;53.662;10.126;2023-02-15T11:53:46;4.70;99.90
23748;DHT22;12054;53.662;10.126;2023-02-15T11:56:17;4.80;99.90
23748;DHT22;12054;53.662;10.126;2023-02-15T11:58:47;4.80;99.90
23748;DHT22;12054;53.662;10.126;2023-02-15T12:01:29;4.80;99.90
23748;DHT22;12054;53.662;10.126;2023-02-15T12:04:22;4.80;99.90
23748;DHT22;12054;53.662;10.126;2023-02-15T12:06:57;4.90;99.90
23748;DHT22;12054;53.662;10.126;2023-02-15T12:09:48;4.90;99.90
23748;DHT22;12054;53.662;10.126;2023-02-15T12:14:54;4.90;99.90
23748;DHT22;12054;53.662;10.126;2023-02-15T12:17:29;4.90;99.90
23748;DHT22;12054;53.662;10.126;2023-02-15T12:19:57;4.90;99.90
23748;DHT22;12054;53.662;10.126;2023-02-15T12:22:28;5.00;99.90
23748;DHT22;12054;53.662;10.126;2023-02-15T12:24:59;5.00;99.90
23748;DHT22;12054;53.662;10.126;2023-02-15T12:27:28;5.00;99.90
23748;DHT22;12054;53.662;10.126;2023-02-15T12:30:04;5.00;99.90
23748;DHT22;12054;53.662;10.126;2023-02-15T12:32:46;5.00;99.90
23748;DHT22;12054;53.662;10.126;2023-02-15T12:35:30;5.10;99.90
23748;DHT22;12054;53.662;10.126;2023-02-15T12:38:20;5.10;99.90
23748;DHT22;12054;53.662;10.126;2023-02-15T12:41:22;5.10;99.90
23748;DHT22;12054;53.662;10.126;2023-02-15T12:46:31;5.20;99.90
23748;DHT22;12054;53.662;10.126;2023-02-15T12:51:55;5.30;99.90
23748;DHT22;12054;53.662;10.126;2023-02-15T12:54:27;5.30;99.90
23748;DHT22;12054;53.662;10.126;2023-02-15T12:56:53;5.30;99.90
23748;DHT22;12054;53.662;10.126;2023-02-15T12:59:19;5.30;99.90
23748;DHT22;12054;53.662;10.126;2023-02-15T13:01:46;5.30;99.90
23748;DHT22;12054;53.662;10.126;2023-02-15T13:04:26;5.30;99.90
23748;DHT22;12054;53.662;10.126;2023-02-15T13:06:58;5.40;99.90
23748;DHT22;12054;53.662;10.126;2023-02-15T13:11:57;5.40;99.90
23748;DHT22;12054;53.662;10.126;2023-02-15T13:14:34;5.50;99.90
23748;DHT22;12054;53.662;10.126;2023-02-15T13:17:02;5.60;99.90
23748;DHT22;12054;53.662;10.126;2023-02-15T13:19:36;5.70;99.90
23748;DHT22;12054;53.662;10.126;2023-02-15T13:22:06;5.70;99.90
23748;DHT22;12054;53.662;10.126;2023-02-15T13:27:22;5.90;99.90
23748;DHT22;12054;53.662;10.126;2023-02-15T13:29:55;5.90;99.90
23748;DHT22;12054;53.662;10.126;2023-02-15T13:32:32;6.00;99.90
23748;DHT22;12054;53.662;10.126;2023-02-15T13:35:00;6.00;99.90
23748;DHT22;12054;53.662;10.126;2023-02-15T13:37:43;6.10;99.90
23748;DHT22;12054;53.662;10.126;2023-02-15T13:42:59;6.20;99.90
23748;DHT22;12054;53.662;10.126;2023-02-15T13:48:15;6.40;99.90
23748;DHT22;12054;53.662;10.126;2023-02-15T13:53:41;6.50;99.90
23748;DHT22;12054;53.662;10.126;2023-02-15T13:59:24;6.60;99.90
23748;DHT22;12054;53.662;10.126;2023-02-15T14:02:15;6.60;99.90
23748;DHT22;12054;53.662;10.126;2023-02-15T14:05:15;6.70;99.90
23748;DHT22;12054;53.662;10.126;2023-02-15T14:10:25;6.70;99.90
23748;DHT22;12054;53.662;10.126;2023-02-15T14:16:00;6.80;99.90
23748;DHT22;12054;53.662;10.126;2023-02-15T14:18:45;6.90;99.90
23748;DHT22;12054;53.662;10.126;2023-02-15T14:21:19;6.90;99.90
23748;DHT22;12054;53.662;10.126;2023-02-15T14:31:50;7.00;99.90
23748;DHT22;12054;53.662;10.126;2023-02-15T14:34:24;7.10;99.90
23748;DHT22;12054;53.662;10.126;2023-02-15T14:36:51;7.10;99.90
23748;DHT22;12054;53.662;10.126;2023-02-15T14:39:24;7.10;99.90
23748;DHT22;12054;53.662;10.126;2023-02-15T14:42:28;7.10;99.90
23748;DHT22;12054;53.662;10.126;2023-02-15T14:45:51;7.10;99.90
23748;DHT22;12054;53.662;10.126;2023-02-15T14:48:18;7.10;99.90
23748;DHT22;12054;53.662;10.126;2023-02-15T14:50:46;7.10;99.90
23748;DHT22;12054;53.662;10.126;2023-02-15T14:53:34;7.10;99.90
23748;DHT22;12054;53.662;10.126;2023-02-15T14:56:18;7.10;99.90
23748;DHT22;12054;53.662;10.126;2023-02-15T15:01:30;7.10;99.90
23748;DHT22;12054;53.662;10.126;2023-02-15T15:04:03;7.10;99.90
23748;DHT22;12054;53.662;10.126;2023-02-15T15:06:32;7.10;99.90
23748;DHT22;12054;53.662;10.126;2023-02-15T15:09:20;7.10;99.90
23748;DHT22;12054;53.662;10.126;2023-02-15T15:11:49;7.10;99.90
23748;DHT22;12054;53.662;10.126;2023-02-15T15:17:00;7.10;99.90
23748;DHT22;12054;53.662;10.126;2023-02-15T15:22:30;7.10;99.90
23748;DHT22;12054;53.662;10.126;2023-02-15T15:43:59;7.10;99.90
23748;DHT22;12054;53.662;10.126;2023-02-15T15:49:31;7.10;99.90
23748;DHT22;12054;53.662;10.126;2023-02-15T15:52:02;7.10;99.90
23748;DHT22;12054;53.662;10.126;2023-02-15T15:54:28;7.10;99.90
23748;DHT22;12054;53.662;10.126;2023-02-15T15:56:58;7.10;99.90
23748;DHT22;12054;53.662;10.126;2023-02-15T15:59:28;7.10;99.90
23748;DHT22;12054;53.662;10.126;2023-02-15T16:01:55;7.10;99.90
23748;DHT22;12054;53.662;10.126;2023-02-15T16:04:27;7.10;99.90
23748;DHT22;12054;53.662;10.126;2023-02-15T16:06:55;7.00;99.90
23748;DHT22;12054;53.662;10.126;2023-02-15T16:09:24;7.00;99.90
23748;DHT22;12054;53.662;10.126;2023-02-15T16:11:52;7.00;99.90
23748;DHT22;12054;53.662;10.126;2023-02-15T16:14:39;7.00;99.90
23748;DHT22;12054;53.662;10.126;2023-02-15T16:17:08;7.00;99.90
23748;DHT22;12054;53.662;10.126;2023-02-15T16:19:40;7.00;99.90
23748;DHT22;12054;53.662;10.126;2023-02-15T16:22:23;7.00;99.90
23748;DHT22;12054;53.662;10.126;2023-02-15T16:27:48;7.00;99.90
23748;DHT22;12054;53.662;10.126;2023-02-15T16:32:42;6.90;99.90
23748;DHT22;12054;53.662;10.126;2023-02-15T16:35:16;6.90;99.90
23748;DHT22;12054;53.662;10.126;2023-02-15T16:37:43;6.90;99.90
23748;DHT22;12054;53.662;10.126;2023-02-15T16:40:35;6.90;99.90
23748;DHT22;12054;53.662;10.126;2023-02-15T16:43:06;6.90;99.90
23748;DHT22;12054;53.662;10.126;2023-02-15T16:45:35;6.80;99.90
23748;DHT22;12054;53.662;10.126;2023-02-15T16:48:08;6.80;99.90
23748;DHT22;12054;53.662;10.126;2023-02-15T16:50:37;6.80;99.90
23748;DHT22;12054;53.662;10.126;2023-02-15T16:53:06;6.80;99.90
23748;DHT22;12054;53.662;10.126;2023-02-15T16:55:37;6.80;99.90
23748;DHT22;12054;53.662;10.126;2023-02-15T16:58:05;6.80;99.90
23748;DHT22;12054;53.662;10.126;2023-02-15T17:00:35;6.70;99.90
23748;DHT22;12054;53.662;10.126;2023-02-15T17:03:05;6.70;99.90
23748;DHT22;12054;53.662;10.126;2023-02-15T17:05:40;6.70;99.90
23748;DHT22;12054;53.662;10.126;2023-02-15T17:13:32;6.60;99.90
23748;DHT22;12054;53.662;10.126;2023-02-15T17:18:38;6.60;99.90
23748;DHT22;12054;53.662;10.126;2023-02-15T17:21:41;6.60;99.90
23748;DHT22;12054;53.662;10.126;2023-02-15T17:27:38;6.60;99.90
23748;DHT22;12054;53.662;10.126;2023-02-15T17:30:21;6.50;99.90
23748;DHT22;12054;53.662;10.126;2023-02-15T17:32:54;6.50;99.90
23748;DHT22;12054;53.662;10.126;2023-02-15T17:35:23;6.50;99.90
23748;DHT22;12054;53.662;10.126;2023-02-15T17:38:17;6.50;99.90
23748;DHT22;12054;53.662;10.126;2023-02-15T17:40:43;6.40;99.90
23748;DHT22;12054;53.662;10.126;2023-02-15T17:43:08;6.40;99.90
23748;DHT22;12054;53.662;10.126;2023-02-15T17:45:44;6.40;99.90
23748;DHT22;12054;53.662;10.126;2023-02-15T17:48:36;6.30;99.90
23748;DHT22;12054;53.662;10.126;2023-02-15T17:51:20;6.30;99.90
23748;DHT22;12054;53.662;10.126;2023-02-15T17:53:47;6.40;99.90
23748;DHT22;12054;53.662;10.126;2023-02-15T17:56:32;6.30;99.90
23748;DHT22;12054;53.662;10.126;2023-02-15T17:58:58;6.30;99.90
23748;DHT22;12054;53.662;10.126;2023-02-15T18:01:24;6.20;99.90
23748;DHT22;12054;53.662;10.126;2023-02-15T18:04:11;6.20;99.90
23748;DHT22;12054;53.662;10.126;2023-02-15T18:06:55;6.20;99.90
23748;DHT22;12054;53.662;10.126;2023-02-15T18:09:40;6.20;99.90
23748;DHT22;12054;53.662;10.126;2023-02-15T18:12:30;6.20;99.90
23748;DHT22;12054;53.662;10.126;2023-02-15T18:14:57;6.10;99.90
23748;DHT22;12054;53.662;10.126;2023-02-15T18:17:33;6.10;99.90
23748;DHT22;12054;53.662;10.126;2023-02-15T18:20:04;6.10;99.90
23748;DHT22;12054;53.662;10.126;2023-02-15T18:22:31;6.10;99.90
23748;DHT22;12054;53.662;10.126;2023-02-15T18:24:58;6.10;99.90
23748;DHT22;12054;53.662;10.126;2023-02-15T18:27:24;6.00;99.90
23748;DHT22;12054;53.662;10.126;2023-02-15T18:29:50;6.00;99.90
23748;DHT22;12054;53.662;10.126;2023-02-15T18:32:31;6.00;99.90
23748;DHT22;12054;53.662;10.126;2023-02-15T18:34:57;6.00;99.90
23748;DHT22;12054;53.662;10.126;2023-02-15T18:37:25;5.90;99.90
23748;DHT22;12054;53.662;10.126;2023-02-15T18:39:53;5.90;99.90